Strona główna
METAR-TAF:

METAR-TAF

Lotnisko :

Nörvenich, Niemcy

Szerokość geograficzna: 50-50N, Długość geograficzna: 006-40E, wysokość: 118 m

Aktualna obserwacja pogody

Raport powstał 59 minut temu, godzina 07:20 UTC
Wiatr 8 kt od północno-północny wschód
Temperatura 14°C
Wilgotność 58%
Ciśnienie 1033 hPa
Widzialność 10 km lub więcej

METAR: ETNN 280720Z 02008KT 9999 14/06 Q1033 BLU+BLU+

czas: 10:19 (08:19 UTC)

Prognoza

Raport powstał 1 godzina i 12 minut temu, godzina 07:07 UTC
Prognoza ważna od 28 godzina 08 UTC do 28 godzina 17 UTC
Wiatr 8 kt od północno-północny wschód
Widzialność 10 km lub więcej
bezchmurnie

TAF: ETNN 280707Z 2808/2817 02008KT 9999 NSW SKC BY ETGL

Obserwacja i prognoza pogody dla ponad 4000 lotnisk (raport METAR i TAF).

Dostępne stacje oznaczono żółtymi i czerwonymi punktami na mapie.

Najedź kursorem aby zobaczyć nazwę stacji.

Kliknij aby zobaczyć obserwacje i prognozy pogody.

Aby zmienić mapę: kliknij na zielony przycisk z czarnym krzyżykiem, aby powiększyć; na zielony przycisk z myślnikiem, aby pomniejszyć; na zielone strzałki, aby przejść do map sąsiednich.


METAR-TAF: